Aviation Digital Data Service (ADDS)

Output produced by METARs form (0209 UTC 31 August 2016)
found at http://www.aviationweather.gov/adds/metars/
 
METAR text: KSBP 310156Z 32014KT 10SM CLR 19/12 A2986 RMK AO2 SLP109 T01890122
Conditions at: KSBP (SAN LUIS OBISPO , CA, US) observed 0156 UTC 31 August 2016
Temperature: 18.9°C (66°F)
Dewpoint: 12.2°C (54°F) [RH = 65%]
Pressure (altimeter): 29.86 inches Hg (1011.3 mb)
[Sea-level pressure: 1010.9 mb]
Winds: from the NW (320 degrees) at 16 MPH (14 knots; 7.3 m/s)
Visibility: 10 or more miles (16+ km)
Ceiling: at least 12,000 feet AGL
Clouds: sky clear below 12,000 feet AGL
Weather: no significant weather observed at this time

METAR text: KSBP 310056Z 32017G23KT 10SM CLR 22/12 A2984 RMK AO2 SLP104 T02220122
Conditions at: KSBP (SAN LUIS OBISPO , CA, US) observed 0056 UTC 31 August 2016
Temperature: 22.2°C (72°F)
Dewpoint: 12.2°C (54°F) [RH = 53%]
Pressure (altimeter): 29.84 inches Hg (1010.6 mb)
[Sea-level pressure: 1010.4 mb]
Winds: from the NW (320 degrees) at 20 MPH (17 knots; 8.8 m/s)
gusting to 26 MPH (23 knots; 12.0 m/s)
Visibility: 10 or more miles (16+ km)
Ceiling: at least 12,000 feet AGL
Clouds: sky clear below 12,000 feet AGL
Weather: no significant weather observed at this time

METAR text: KSBP 302356Z 31013KT 10SM CLR 24/12 A2984 RMK AO2 SLP102 T02390122 10339 20239 56007
Conditions at: KSBP (SAN LUIS OBISPO , CA, US) observed 2356 UTC 30 August 2016
Temperature: 23.9°C (75°F)
Dewpoint: 12.2°C (54°F) [RH = 48%]
Pressure (altimeter): 29.84 inches Hg (1010.6 mb)
[Sea-level pressure: 1010.2 mb]
Winds: from the NW (310 degrees) at 15 MPH (13 knots; 6.8 m/s)
Visibility: 10 or more miles (16+ km)
Ceiling: at least 12,000 feet AGL
Clouds: sky clear below 12,000 feet AGL
Weather: no significant weather observed at this time

METAR text: KSBP 302256Z 32018G27KT 10SM CLR 26/11 A2984 RMK AO2 PK WND 32029/2225 SLP101 T02610111
Conditions at: KSBP (SAN LUIS OBISPO , CA, US) observed 2256 UTC 30 August 2016
Temperature: 26.1°C (79°F)
Dewpoint: 11.1°C (52°F) [RH = 39%]
Pressure (altimeter): 29.84 inches Hg (1010.6 mb)
[Sea-level pressure: 1010.1 mb]
Winds: from the NW (320 degrees) at 21 MPH (18 knots; 9.4 m/s)
gusting to 31 MPH (27 knots; 14.0 m/s)
Visibility: 10 or more miles (16+ km)
Ceiling: at least 12,000 feet AGL
Clouds: sky clear below 12,000 feet AGL
Weather: no significant weather observed at this time

METAR text: KSBP 302156Z 33020G27KT 10SM CLR 27/11 A2985 RMK AO2 PK WND 32031/2124 SLP104 T02670111
Conditions at: KSBP (SAN LUIS OBISPO , CA, US) observed 2156 UTC 30 August 2016
Temperature: 26.7°C (80°F)
Dewpoint: 11.1°C (52°F) [RH = 38%]
Pressure (altimeter): 29.85 inches Hg (1010.9 mb)
[Sea-level pressure: 1010.4 mb]
Winds: from the NNW (330 degrees) at 23 MPH (20 knots; 10.4 m/s)
gusting to 31 MPH (27 knots; 14.0 m/s)
Visibility: 10 or more miles (16+ km)
Ceiling: at least 12,000 feet AGL
Clouds: sky clear below 12,000 feet AGL
Weather: no significant weather observed at this time

METAR text: KSBP 302056Z 32021G27KT 10SM CLR 27/12 A2986 RMK AO2 PK WND 31028/2036 SLP107 T02670122 56010
Conditions at: KSBP (SAN LUIS OBISPO , CA, US) observed 2056 UTC 30 August 2016
Temperature: 26.7°C (80°F)
Dewpoint: 12.2°C (54°F) [RH = 41%]
Pressure (altimeter): 29.86 inches Hg (1011.3 mb)
[Sea-level pressure: 1010.7 mb]
Winds: from the NW (320 degrees) at 24 MPH (21 knots; 10.9 m/s)
gusting to 31 MPH (27 knots; 14.0 m/s)
Visibility: 10 or more miles (16+ km)
Ceiling: at least 12,000 feet AGL
Clouds: sky clear below 12,000 feet AGL
Weather: no significant weather observed at this time

METAR text: KSBP 301956Z 31019G26KT 10SM CLR 29/12 A2986 RMK AO2 PK WND 31026/1954 SLP107 T02890117
Conditions at: KSBP (SAN LUIS OBISPO , CA, US) observed 1956 UTC 30 August 2016
Temperature: 28.9°C (84°F)
Dewpoint: 11.7°C (53°F) [RH = 35%]
Pressure (altimeter): 29.86 inches Hg (1011.3 mb)
[Sea-level pressure: 1010.7 mb]
Winds: from the NW (310 degrees) at 22 MPH (19 knots; 9.9 m/s)
gusting to 30 MPH (26 knots; 13.5 m/s)
Visibility: 10 or more miles (16+ km)
Ceiling: at least 12,000 feet AGL
Clouds: sky clear below 12,000 feet AGL
Weather: no significant weather observed at this time

METAR text: KSBP 301856Z 30018KT 10SM CLR 31/12 A2987 RMK AO2 SLP111 T03060117
Conditions at: KSBP (SAN LUIS OBISPO , CA, US) observed 1856 UTC 30 August 2016
Temperature: 30.6°C (87°F)
Dewpoint: 11.7°C (53°F) [RH = 31%]
Pressure (altimeter): 29.87 inches Hg (1011.6 mb)
[Sea-level pressure: 1011.1 mb]
Winds: from the WNW (300 degrees) at 21 MPH (18 knots; 9.4 m/s)
Visibility: 10 or more miles (16+ km)
Ceiling: at least 12,000 feet AGL
Clouds: sky clear below 12,000 feet AGL
Weather: no significant weather observed at this time